Terminal Aerodrome Forecast
Issued by NWS

Home | Current Version | Previous Version | Text Only | Print | Product List | Glossary On
Versions: 1 2 3 4 5 6 7 8 9 10 11 12 13 14 15 16 17
000
FTAK31 PANC 211120
TAFADU
TAF
PADU 211120Z 2112/2212 35011KT P6SM VCSH SCT025 BKN040
     FM211800 24008KT P6SM VCSH SCT015 OVC035
     FM220600 15014KT P6SM VCSH BKN035 OVC050=

USA.gov is the U.S. government's official web portal to all federal, state and local government web resources and services.